createdAt,value
2018-12-30T00:05:14.709Z,4.53
2018-12-30T00:11:20.695Z,4.23
2018-12-30T00:17:26.478Z,4.27
2018-12-30T00:23:32.418Z,4.20
2018-12-30T00:29:38.140Z,4.07
2018-12-30T00:35:43.817Z,4.13
2018-12-30T00:41:49.574Z,4.50
2018-12-30T00:47:55.278Z,4.00
2018-12-30T00:54:01.161Z,4.00
2018-12-30T01:00:07.822Z,4.10
2018-12-30T01:06:13.543Z,4.77
2018-12-30T01:12:19.246Z,4.40
2018-12-30T01:18:25.204Z,4.77
2018-12-30T01:24:30.899Z,4.80
2018-12-30T01:30:36.865Z,5.60
2018-12-30T01:36:42.558Z,5.50
2018-12-30T01:42:48.214Z,5.30
2018-12-30T01:48:53.999Z,5.60
2018-12-30T01:54:59.746Z,6.00
2018-12-30T02:01:05.462Z,4.57
2018-12-30T02:07:11.201Z,4.33
2018-12-30T02:13:16.945Z,4.17
2018-12-30T02:19:23.028Z,3.83
2018-12-30T02:25:28.738Z,4.13
2018-12-30T02:31:36.307Z,4.47
2018-12-30T02:37:42.007Z,4.57
2018-12-30T02:43:47.682Z,4.90
2018-12-30T02:49:53.407Z,5.17
2018-12-30T02:55:59.105Z,4.63
2018-12-30T03:02:05.360Z,5.17
2018-12-30T03:08:11.120Z,4.37
2018-12-30T03:14:16.873Z,5.73
2018-12-30T03:20:22.566Z,3.57
2018-12-30T03:26:28.236Z,4.17
2018-12-30T03:32:34.144Z,4.10
2018-12-30T03:38:42.139Z,4.10
2018-12-30T03:44:47.829Z,4.60
2018-12-30T03:50:53.586Z,3.73
2018-12-30T03:56:59.287Z,4.13
2018-12-30T04:03:04.940Z,4.43
2018-12-30T04:09:10.629Z,3.53
2018-12-30T04:15:16.614Z,4.00
2018-12-30T04:21:22.304Z,4.03
2018-12-30T04:27:28.084Z,3.53
2018-12-30T04:33:33.727Z,3.70
2018-12-30T04:39:39.426Z,4.10
2018-12-30T04:45:45.205Z,2.87
2018-12-30T04:51:50.900Z,4.07
2018-12-30T04:57:56.551Z,3.70
2018-12-30T05:04:02.233Z,4.00
2018-12-30T05:10:07.972Z,4.90
2018-12-30T05:16:13.689Z,4.10
2018-12-30T05:22:19.379Z,4.07
2018-12-30T05:28:25.048Z,3.83
2018-12-30T05:34:30.923Z,4.33
2018-12-30T05:40:36.628Z,3.53
2018-12-30T05:46:42.800Z,4.40
2018-12-30T05:52:48.437Z,4.17
2018-12-30T05:58:54.216Z,3.90
2018-12-30T06:04:59.919Z,3.83
2018-12-30T06:11:05.670Z,4.40
2018-12-30T06:17:11.381Z,3.50
2018-12-30T06:23:17.046Z,4.67
2018-12-30T06:29:22.743Z,4.00
2018-12-30T06:35:28.543Z,3.87
2018-12-30T06:41:34.368Z,4.07
2018-12-30T06:47:40.021Z,4.23
2018-12-30T06:53:45.737Z,4.73
2018-12-30T06:59:51.599Z,4.10
2018-12-30T07:05:57.286Z,4.27
2018-12-30T07:12:03.061Z,4.73
2018-12-30T07:18:08.805Z,4.20
2018-12-30T07:24:14.516Z,3.87
2018-12-30T07:30:20.686Z,3.87
2018-12-30T07:36:26.448Z,4.10
2018-12-30T07:42:32.273Z,4.07
2018-12-30T07:48:37.959Z,3.40
2018-12-30T07:54:43.709Z,3.80
2018-12-30T08:00:49.480Z,3.40
2018-12-30T08:06:55.220Z,4.10
2018-12-30T08:13:01.009Z,3.63
2018-12-30T08:19:06.792Z,3.77
2018-12-30T08:25:12.480Z,3.60
2018-12-30T08:31:18.405Z,3.80
2018-12-30T08:37:24.166Z,3.60
2018-12-30T08:43:29.905Z,3.53
2018-12-30T08:49:35.598Z,3.40
2018-12-30T08:55:41.437Z,3.87
2018-12-30T09:01:47.120Z,3.80
2018-12-30T09:07:52.889Z,3.90
2018-12-30T09:13:58.617Z,3.47
2018-12-30T09:20:04.312Z,3.83
2018-12-30T09:26:09.987Z,3.60
2018-12-30T09:32:15.788Z,4.27
2018-12-30T09:38:21.529Z,3.23
2018-12-30T09:44:27.311Z,3.37
2018-12-30T09:50:33.081Z,3.40
2018-12-30T09:56:38.849Z,3.17
2018-12-30T10:02:44.954Z,3.47
2018-12-30T10:08:50.739Z,3.43
2018-12-30T10:14:56.428Z,3.10
2018-12-30T10:21:02.173Z,3.20
2018-12-30T10:27:07.881Z,3.67
2018-12-30T10:33:13.739Z,3.27
2018-12-30T10:39:19.803Z,3.90
2018-12-30T10:45:25.494Z,3.80
2018-12-30T10:51:31.626Z,3.80
2018-12-30T10:57:37.762Z,3.63
2018-12-30T11:03:43.817Z,3.00
2018-12-30T11:09:49.717Z,3.50
2018-12-30T11:15:56.638Z,3.07
2018-12-30T11:22:02.399Z,3.47
2018-12-30T11:28:08.357Z,2.63
2018-12-30T11:34:14.154Z,3.23
2018-12-30T11:40:20.503Z,3.03
2018-12-30T11:46:26.204Z,3.47
2018-12-30T11:52:32.221Z,3.50
2018-12-30T11:58:38.138Z,3.60
2018-12-30T12:04:44.248Z,3.20
2018-12-30T12:10:50.132Z,3.13
2018-12-30T12:16:57.600Z,3.27
2018-12-30T12:23:03.393Z,4.00
2018-12-30T12:29:09.104Z,4.33
2018-12-30T12:35:14.978Z,4.07
2018-12-30T12:41:21.067Z,4.33
2018-12-30T12:47:27.029Z,3.77
2018-12-30T12:53:32.841Z,4.23
2018-12-30T12:59:39.703Z,3.87
2018-12-30T13:05:45.362Z,4.63
2018-12-30T13:11:51.822Z,4.53
2018-12-30T13:17:57.586Z,4.80
2018-12-30T13:24:03.352Z,4.57
2018-12-30T13:30:09.921Z,5.00
2018-12-30T13:36:16.861Z,4.73
2018-12-30T13:42:22.546Z,3.83
2018-12-30T13:48:28.473Z,4.47
2018-12-30T13:54:34.477Z,4.77
2018-12-30T14:00:40.155Z,5.27
2018-12-30T14:06:45.904Z,5.33
2018-12-30T14:12:51.836Z,5.00
2018-12-30T14:18:57.494Z,5.20
2018-12-30T14:25:04.411Z,5.30
2018-12-30T14:31:10.286Z,6.80
2018-12-30T14:37:15.965Z,5.73
2018-12-30T14:43:21.868Z,6.73
2018-12-30T14:49:27.515Z,6.10
2018-12-30T14:55:33.382Z,5.60
2018-12-30T15:01:39.146Z,6.03
2018-12-30T15:07:45.440Z,6.20
2018-12-30T15:13:51.137Z,6.13
2018-12-30T15:19:57.217Z,6.27
2018-12-30T15:26:03.030Z,5.93
2018-12-30T15:32:08.849Z,7.33
2018-12-30T15:38:14.564Z,7.33
2018-12-30T15:44:20.667Z,7.40
2018-12-30T15:50:26.384Z,7.17
2018-12-30T15:56:32.046Z,5.97
2018-12-30T16:02:38.051Z,6.10
2018-12-30T16:08:44.313Z,6.47
2018-12-30T16:14:49.978Z,6.67
2018-12-30T16:20:55.882Z,6.97
2018-12-30T16:27:01.572Z,9.53
2018-12-30T16:33:07.241Z,9.13
2018-12-30T16:39:13.004Z,10.60
2018-12-30T16:45:19.698Z,10.37
2018-12-30T16:51:25.679Z,12.80
2018-12-30T16:57:31.468Z,13.40
2018-12-30T17:03:37.427Z,13.97
2018-12-30T17:09:43.113Z,15.90
2018-12-30T17:15:48.810Z,16.77
2018-12-30T17:21:54.656Z,18.00
2018-12-30T17:28:00.430Z,19.30
2018-12-30T17:34:06.209Z,20.53
2018-12-30T17:40:11.916Z,22.50
2018-12-30T17:46:18.364Z,21.67
2018-12-30T17:52:24.401Z,24.23
2018-12-30T17:58:30.139Z,24.60
2018-12-30T18:04:36.055Z,24.90
2018-12-30T18:10:42.300Z,25.27
2018-12-30T18:16:47.988Z,27.13
2018-12-30T18:22:54.059Z,27.90
2018-12-30T18:28:59.833Z,27.23
2018-12-30T18:35:05.562Z,29.43
2018-12-30T18:41:11.420Z,29.37
2018-12-30T18:47:17.465Z,28.07
2018-12-30T18:53:23.604Z,30.03
2018-12-30T18:59:29.382Z,29.63
2018-12-30T19:05:35.140Z,30.67
2018-12-30T19:11:41.058Z,32.20
2018-12-30T19:17:46.833Z,30.73
2018-12-30T19:23:54.355Z,32.77
2018-12-30T19:30:00.238Z,29.53
2018-12-30T19:36:05.933Z,27.30
2018-12-30T19:42:11.712Z,26.33
2018-12-30T19:48:17.461Z,27.30
2018-12-30T19:54:23.207Z,26.63
2018-12-30T20:00:29.040Z,28.60
2018-12-30T20:06:34.931Z,28.30
2018-12-30T20:12:40.727Z,31.20
2018-12-30T20:18:46.352Z,30.40
2018-12-30T20:24:52.151Z,30.87
2018-12-30T20:30:58.305Z,30.37
2018-12-30T20:37:04.196Z,28.97
2018-12-30T20:43:09.967Z,29.43
2018-12-30T20:49:15.714Z,30.20
2018-12-30T20:55:21.453Z,28.90
2018-12-30T21:01:27.298Z,29.00
2018-12-30T21:07:33.101Z,29.90
2018-12-30T21:13:38.892Z,29.43
2018-12-30T21:19:44.658Z,31.70
2018-12-30T21:25:50.511Z,32.47
2018-12-30T21:31:56.254Z,34.13
2018-12-30T21:38:02.094Z,31.87
2018-12-30T21:44:07.946Z,31.67
2018-12-30T21:50:13.700Z,32.23
2018-12-30T21:56:19.479Z,31.97
2018-12-30T22:02:25.276Z,29.30
2018-12-30T22:08:31.076Z,27.50
2018-12-30T22:14:36.816Z,25.33
2018-12-30T22:20:42.722Z,25.67
2018-12-30T22:26:48.617Z,27.20
2018-12-30T22:32:54.314Z,27.43
2018-12-30T22:39:00.003Z,28.97
2018-12-30T22:45:05.937Z,28.30
2018-12-30T22:51:11.874Z,29.00
2018-12-30T22:57:17.614Z,28.27
2018-12-30T23:03:23.313Z,28.70
2018-12-30T23:09:29.101Z,28.67
2018-12-30T23:15:34.869Z,28.40
2018-12-30T23:21:40.668Z,27.87
2018-12-30T23:27:46.944Z,29.40
2018-12-30T23:33:52.646Z,30.97
2018-12-30T23:39:58.378Z,33.83
2018-12-30T23:46:04.171Z,33.40
2018-12-30T23:52:10.044Z,33.70
2018-12-30T23:58:15.743Z,33.43
